الصفحة الرئيسية
METAR-TAF:

METAR-TAF

مطار :

Tucumcari Municipal Airport

Tucumcari, نيومكسيكو, الولايات المتحدة

دائرة عرض: 35-10-58N, خط طول: 103-36-11W, ارتفاع: 1239 متر

مراقبة الطقس الحالي

تاريخ ووقت الإصدار 51 دقيقة قبل الساعة 05:53UTC
ريح 10 عقدة من الجنوب الغربي
درجة الحرارة 3°درجة مئوية
الرطوبة 65%
ضغط 1021 hPa
الرؤية: 16.1 كم
سماء صافية

METAR: KTCC 110553Z AUTO 22010KT 10SM CLR 03/M03 A3016 RMK AO2 SLP208 T00331033 10083 20017 58012

زمن: 23:44 (06:44 UTC)

توقعات

تاريخ ووقت الإصدار 1ساعة و 15 دقيقة قبل الساعة 05:29UTC
التوقعات صالحة من11 الساعة 06 UTC إلى 12 الساعة 06 UTC
ريح 8 عقدة من الجنوب الغربي
الرؤية: 10 كم
غيوم مفككة على ارتفاع 25000 قدم
من 11 الساعة 0900 UTC
ريح 13 عقدة من الغرب/الجنوب الغربي
الرؤية: 10 كم
غيوم متفرقة على ارتفاع 15000 قدم
غيوم مفككة على ارتفاع 20000 قدم
من 12 الساعة 0200 UTC
ريح 12 عقدة من الشمال/الشمال الغربي
الرؤية: 10 كم
غيوم متفرقة على ارتفاع 15000 قدم
غيوم مفككة على ارتفاع 20000 قدم

TAF: KTCC 110529Z 1106/1206 22008KT P6SM BKN250 FM110900 24013KT P6SM SCT150 BKN200 FM120200 34012KT P6SM SCT150 BKN200

أرصاد الطقس والتوقعات من أكثر من 4000 مطار (تقارير الطقس للمطار METAR والتنبؤ بالطقس بالمطارTAF).

المحطات المتاحة هي النقط الصفراء والحمراء على الخريطة.

حرك المؤشر فوق النقطة لمعرفة اسم المحطة.

ثم انقر لمعرفة أرصاد وتوقعات الطقس.

لتغيير الخارطة: اضغط على الأزرار الخضراء مع رمز الصليب الأسود للتكبير. على الزر الأخضر مع شرطة للتصغير، أو على الأسهم الخضراء للخرائط المجاورة.


METAR-TAF: